sensor_id;sensor_type;location;lat;lon;timestamp;P1;durP1;ratioP1;P2;durP2;ratioP2
82265;SDS011;71866;53.340;-6.308;2023-12-20T00:01:16;11.32;;;1.85;;
82265;SDS011;71866;53.340;-6.308;2023-12-20T00:03:44;10.18;;;1.55;;
82265;SDS011;71866;53.340;-6.308;2023-12-20T00:06:11;11.32;;;2.20;;
82265;SDS011;71866;53.340;-6.308;2023-12-20T00:08:38;4.07;;;1.52;;
82265;SDS011;71866;53.340;-6.308;2023-12-20T00:11:06;10.40;;;1.80;;
82265;SDS011;71866;53.340;-6.308;2023-12-20T00:13:36;11.80;;;2.45;;
82265;SDS011;71866;53.340;-6.308;2023-12-20T00:16:02;8.05;;;1.63;;
82265;SDS011;71866;53.340;-6.308;2023-12-20T00:18:29;6.45;;;1.30;;
82265;SDS011;71866;53.340;-6.308;2023-12-20T00:20:57;6.50;;;1.40;;
82265;SDS011;71866;53.340;-6.308;2023-12-20T00:23:25;8.10;;;1.83;;
82265;SDS011;71866;53.340;-6.308;2023-12-20T00:25:52;7.30;;;1.90;;
82265;SDS011;71866;53.340;-6.308;2023-12-20T00:28:20;6.78;;;2.00;;
82265;SDS011;71866;53.340;-6.308;2023-12-20T00:30:47;12.75;;;2.30;;
82265;SDS011;71866;53.340;-6.308;2023-12-20T00:33:14;7.97;;;1.70;;
82265;SDS011;71866;53.340;-6.308;2023-12-20T00:35:42;9.27;;;1.90;;
82265;SDS011;71866;53.340;-6.308;2023-12-20T00:38:08;10.57;;;1.95;;
82265;SDS011;71866;53.340;-6.308;2023-12-20T00:40:36;9.95;;;2.28;;
82265;SDS011;71866;53.340;-6.308;2023-12-20T00:43:03;12.23;;;1.92;;
82265;SDS011;71866;53.340;-6.308;2023-12-20T00:45:30;9.65;;;2.03;;
82265;SDS011;71866;53.340;-6.308;2023-12-20T00:47:58;10.10;;;2.03;;
82265;SDS011;71866;53.340;-6.308;2023-12-20T00:50:25;8.85;;;1.70;;
82265;SDS011;71866;53.340;-6.308;2023-12-20T00:52:55;6.93;;;1.50;;
82265;SDS011;71866;53.340;-6.308;2023-12-20T00:55:22;10.20;;;1.95;;
82265;SDS011;71866;53.340;-6.308;2023-12-20T00:57:50;11.90;;;1.70;;
82265;SDS011;71866;53.340;-6.308;2023-12-20T01:00:17;6.63;;;1.42;;
82265;SDS011;71866;53.340;-6.308;2023-12-20T01:02:44;7.80;;;2.08;;
82265;SDS011;71866;53.340;-6.308;2023-12-20T01:05:11;6.07;;;1.20;;
82265;SDS011;71866;53.340;-6.308;2023-12-20T01:07:39;6.68;;;1.30;;
82265;SDS011;71866;53.340;-6.308;2023-12-20T01:10:05;7.70;;;1.73;;
82265;SDS011;71866;53.340;-6.308;2023-12-20T01:12:32;6.32;;;1.38;;
82265;SDS011;71866;53.340;-6.308;2023-12-20T01:15:00;10.07;;;1.60;;
82265;SDS011;71866;53.340;-6.308;2023-12-20T01:17:27;8.77;;;1.58;;
82265;SDS011;71866;53.340;-6.308;2023-12-20T01:19:54;8.15;;;1.52;;
82265;SDS011;71866;53.340;-6.308;2023-12-20T01:22:21;11.23;;;1.88;;
82265;SDS011;71866;53.340;-6.308;2023-12-20T01:24:49;8.38;;;1.25;;
82265;SDS011;71866;53.340;-6.308;2023-12-20T01:27:15;6.03;;;1.40;;
82265;SDS011;71866;53.340;-6.308;2023-12-20T01:29:43;9.10;;;1.20;;
82265;SDS011;71866;53.340;-6.308;2023-12-20T01:32:10;7.30;;;1.20;;
82265;SDS011;71866;53.340;-6.308;2023-12-20T01:34:36;6.38;;;1.35;;
82265;SDS011;71866;53.340;-6.308;2023-12-20T01:37:04;6.43;;;1.30;;
82265;SDS011;71866;53.340;-6.308;2023-12-20T01:39:31;9.73;;;1.25;;
82265;SDS011;71866;53.340;-6.308;2023-12-20T01:41:58;6.25;;;1.08;;
82265;SDS011;71866;53.340;-6.308;2023-12-20T01:44:25;7.50;;;1.13;;
82265;SDS011;71866;53.340;-6.308;2023-12-20T01:46:53;4.13;;;1.02;;
82265;SDS011;71866;53.340;-6.308;2023-12-20T01:49:20;10.88;;;1.15;;
82265;SDS011;71866;53.340;-6.308;2023-12-20T01:51:49;5.97;;;1.00;;
82265;SDS011;71866;53.340;-6.308;2023-12-20T01:54:16;9.10;;;1.10;;
82265;SDS011;71866;53.340;-6.308;2023-12-20T01:56:45;5.22;;;1.17;;
82265;SDS011;71866;53.340;-6.308;2023-12-20T01:59:13;8.02;;;1.50;;
82265;SDS011;71866;53.340;-6.308;2023-12-20T02:01:40;5.88;;;1.00;;
82265;SDS011;71866;53.340;-6.308;2023-12-20T02:04:09;8.55;;;1.25;;
82265;SDS011;71866;53.340;-6.308;2023-12-20T02:06:35;7.63;;;1.23;;
82265;SDS011;71866;53.340;-6.308;2023-12-20T02:09:08;7.75;;;1.35;;
82265;SDS011;71866;53.340;-6.308;2023-12-20T02:11:37;6.18;;;1.05;;
82265;SDS011;71866;53.340;-6.308;2023-12-20T02:14:06;5.28;;;1.15;;
82265;SDS011;71866;53.340;-6.308;2023-12-20T02:16:39;8.68;;;1.85;;
82265;SDS011;71866;53.340;-6.308;2023-12-20T02:19:09;5.38;;;1.40;;
82265;SDS011;71866;53.340;-6.308;2023-12-20T02:21:42;7.20;;;1.13;;
82265;SDS011;71866;53.340;-6.308;2023-12-20T02:24:10;7.03;;;1.30;;
82265;SDS011;71866;53.340;-6.308;2023-12-20T02:26:37;4.88;;;1.00;;
82265;SDS011;71866;53.340;-6.308;2023-12-20T02:29:04;5.75;;;0.90;;
82265;SDS011;71866;53.340;-6.308;2023-12-20T02:31:31;6.47;;;1.45;;
82265;SDS011;71866;53.340;-6.308;2023-12-20T02:33:57;6.90;;;0.90;;
82265;SDS011;71866;53.340;-6.308;2023-12-20T02:36:25;3.85;;;1.00;;
82265;SDS011;71866;53.340;-6.308;2023-12-20T02:38:52;8.43;;;0.90;;
82265;SDS011;71866;53.340;-6.308;2023-12-20T02:41:19;8.07;;;1.10;;
82265;SDS011;71866;53.340;-6.308;2023-12-20T02:43:46;3.85;;;0.90;;
82265;SDS011;71866;53.340;-6.308;2023-12-20T02:46:14;6.47;;;0.85;;
82265;SDS011;71866;53.340;-6.308;2023-12-20T02:48:43;2.70;;;0.77;;
82265;SDS011;71866;53.340;-6.308;2023-12-20T02:51:11;5.05;;;0.80;;
82265;SDS011;71866;53.340;-6.308;2023-12-20T02:53:37;4.40;;;0.73;;
82265;SDS011;71866;53.340;-6.308;2023-12-20T02:56:04;8.73;;;1.33;;
82265;SDS011;71866;53.340;-6.308;2023-12-20T02:58:32;5.40;;;0.90;;
82265;SDS011;71866;53.340;-6.308;2023-12-20T03:00:59;4.60;;;0.70;;
82265;SDS011;71866;53.340;-6.308;2023-12-20T03:03:27;3.17;;;0.65;;
82265;SDS011;71866;53.340;-6.308;2023-12-20T03:05:54;7.93;;;0.80;;
82265;SDS011;71866;53.340;-6.308;2023-12-20T03:08:22;6.53;;;0.80;;
82265;SDS011;71866;53.340;-6.308;2023-12-20T03:10:49;2.65;;;0.75;;
82265;SDS011;71866;53.340;-6.308;2023-12-20T03:13:15;7.38;;;0.88;;
82265;SDS011;71866;53.340;-6.308;2023-12-20T03:15:43;3.33;;;0.88;;
82265;SDS011;71866;53.340;-6.308;2023-12-20T03:18:10;4.50;;;0.65;;
82265;SDS011;71866;53.340;-6.308;2023-12-20T03:20:37;4.18;;;0.82;;
82265;SDS011;71866;53.340;-6.308;2023-12-20T03:23:05;4.75;;;0.85;;
82265;SDS011;71866;53.340;-6.308;2023-12-20T03:25:33;4.72;;;0.88;;
82265;SDS011;71866;53.340;-6.308;2023-12-20T03:27:59;6.05;;;0.98;;
82265;SDS011;71866;53.340;-6.308;2023-12-20T03:30:28;7.57;;;0.95;;
82265;SDS011;71866;53.340;-6.308;2023-12-20T03:32:55;8.23;;;1.02;;
82265;SDS011;71866;53.340;-6.308;2023-12-20T03:35:22;6.13;;;0.90;;
82265;SDS011;71866;53.340;-6.308;2023-12-20T03:37:50;5.50;;;1.00;;
82265;SDS011;71866;53.340;-6.308;2023-12-20T03:40:17;2.40;;;0.60;;
82265;SDS011;71866;53.340;-6.308;2023-12-20T03:42:44;3.78;;;1.20;;
82265;SDS011;71866;53.340;-6.308;2023-12-20T03:45:11;2.53;;;0.70;;
82265;SDS011;71866;53.340;-6.308;2023-12-20T03:47:38;5.32;;;0.85;;
82265;SDS011;71866;53.340;-6.308;2023-12-20T03:50:06;7.65;;;1.00;;
82265;SDS011;71866;53.340;-6.308;2023-12-20T03:52:33;5.35;;;0.60;;
82265;SDS011;71866;53.340;-6.308;2023-12-20T03:55:00;3.35;;;0.77;;
82265;SDS011;71866;53.340;-6.308;2023-12-20T03:57:27;3.65;;;0.43;;
82265;SDS011;71866;53.340;-6.308;2023-12-20T03:59:55;7.50;;;0.85;;
82265;SDS011;71866;53.340;-6.308;2023-12-20T04:02:22;3.97;;;0.63;;
82265;SDS011;71866;53.340;-6.308;2023-12-20T04:04:49;4.07;;;0.50;;
82265;SDS011;71866;53.340;-6.308;2023-12-20T04:07:16;2.95;;;0.40;;
82265;SDS011;71866;53.340;-6.308;2023-12-20T04:09:43;4.68;;;0.88;;
82265;SDS011;71866;53.340;-6.308;2023-12-20T04:12:10;5.32;;;1.25;;
82265;SDS011;71866;53.340;-6.308;2023-12-20T04:14:37;3.05;;;0.50;;
82265;SDS011;71866;53.340;-6.308;2023-12-20T04:17:05;5.65;;;0.82;;
82265;SDS011;71866;53.340;-6.308;2023-12-20T04:19:31;3.55;;;0.63;;
82265;SDS011;71866;53.340;-6.308;2023-12-20T04:21:58;2.88;;;0.60;;
82265;SDS011;71866;53.340;-6.308;2023-12-20T04:24:26;4.28;;;0.60;;
82265;SDS011;71866;53.340;-6.308;2023-12-20T04:26:52;3.40;;;0.68;;
82265;SDS011;71866;53.340;-6.308;2023-12-20T04:29:20;3.58;;;0.90;;
82265;SDS011;71866;53.340;-6.308;2023-12-20T04:31:47;5.13;;;0.88;;
82265;SDS011;71866;53.340;-6.308;2023-12-20T04:34:14;3.42;;;0.70;;
82265;SDS011;71866;53.340;-6.308;2023-12-20T04:36:42;5.30;;;0.85;;
82265;SDS011;71866;53.340;-6.308;2023-12-20T04:39:09;3.38;;;1.15;;
82265;SDS011;71866;53.340;-6.308;2023-12-20T04:41:36;4.80;;;0.95;;
82265;SDS011;71866;53.340;-6.308;2023-12-20T04:44:04;5.30;;;1.13;;
82265;SDS011;71866;53.340;-6.308;2023-12-20T04:46:33;2.95;;;0.70;;
82265;SDS011;71866;53.340;-6.308;2023-12-20T04:49:00;6.18;;;1.25;;
82265;SDS011;71866;53.340;-6.308;2023-12-20T04:51:27;5.25;;;1.23;;
82265;SDS011;71866;53.340;-6.308;2023-12-20T04:53:54;5.32;;;0.70;;
82265;SDS011;71866;53.340;-6.308;2023-12-20T04:56:21;6.13;;;0.77;;
82265;SDS011;71866;53.340;-6.308;2023-12-20T04:58:49;8.45;;;1.48;;
82265;SDS011;71866;53.340;-6.308;2023-12-20T05:01:15;4.40;;;0.70;;
82265;SDS011;71866;53.340;-6.308;2023-12-20T05:03:42;3.00;;;0.50;;
82265;SDS011;71866;53.340;-6.308;2023-12-20T05:06:10;2.67;;;0.57;;
82265;SDS011;71866;53.340;-6.308;2023-12-20T05:08:38;6.72;;;0.90;;
82265;SDS011;71866;53.340;-6.308;2023-12-20T05:11:08;4.60;;;0.63;;
82265;SDS011;71866;53.340;-6.308;2023-12-20T05:13:36;4.63;;;1.05;;
82265;SDS011;71866;53.340;-6.308;2023-12-20T05:16:13;2.00;;;0.63;;
82265;SDS011;71866;53.340;-6.308;2023-12-20T05:18:40;4.10;;;0.63;;
82265;SDS011;71866;53.340;-6.308;2023-12-20T05:21:07;3.33;;;0.60;;
82265;SDS011;71866;53.340;-6.308;2023-12-20T05:23:34;7.07;;;0.70;;
82265;SDS011;71866;53.340;-6.308;2023-12-20T05:26:01;4.05;;;0.70;;
82265;SDS011;71866;53.340;-6.308;2023-12-20T05:28:29;4.20;;;0.90;;
82265;SDS011;71866;53.340;-6.308;2023-12-20T05:30:56;2.92;;;0.57;;
82265;SDS011;71866;53.340;-6.308;2023-12-20T05:33:23;4.15;;;0.77;;
82265;SDS011;71866;53.340;-6.308;2023-12-20T05:35:50;4.75;;;0.50;;
82265;SDS011;71866;53.340;-6.308;2023-12-20T05:38:18;4.25;;;0.60;;
82265;SDS011;71866;53.340;-6.308;2023-12-20T05:40:45;3.15;;;0.60;;
82265;SDS011;71866;53.340;-6.308;2023-12-20T05:43:11;4.20;;;0.68;;
82265;SDS011;71866;53.340;-6.308;2023-12-20T05:45:39;5.93;;;0.70;;
82265;SDS011;71866;53.340;-6.308;2023-12-20T05:48:06;6.97;;;0.80;;
82265;SDS011;71866;53.340;-6.308;2023-12-20T05:50:33;6.63;;;0.68;;
82265;SDS011;71866;53.340;-6.308;2023-12-20T05:53:00;2.95;;;0.70;;
82265;SDS011;71866;53.340;-6.308;2023-12-20T05:55:28;1.75;;;0.55;;
82265;SDS011;71866;53.340;-6.308;2023-12-20T05:57:56;4.72;;;0.65;;
82265;SDS011;71866;53.340;-6.308;2023-12-20T06:00:23;7.40;;;0.90;;
82265;SDS011;71866;53.340;-6.308;2023-12-20T06:02:51;3.28;;;0.50;;
82265;SDS011;71866;53.340;-6.308;2023-12-20T06:05:18;5.40;;;0.82;;
82265;SDS011;71866;53.340;-6.308;2023-12-20T06:07:45;4.30;;;0.60;;
82265;SDS011;71866;53.340;-6.308;2023-12-20T06:10:13;4.25;;;0.57;;
82265;SDS011;71866;53.340;-6.308;2023-12-20T06:12:40;2.22;;;0.60;;
82265;SDS011;71866;53.340;-6.308;2023-12-20T06:15:07;5.03;;;0.60;;
82265;SDS011;71866;53.340;-6.308;2023-12-20T06:17:35;5.20;;;0.77;;
82265;SDS011;71866;53.340;-6.308;2023-12-20T06:20:01;3.70;;;0.70;;
82265;SDS011;71866;53.340;-6.308;2023-12-20T06:22:28;4.82;;;0.85;;
82265;SDS011;71866;53.340;-6.308;2023-12-20T06:24:56;4.43;;;0.73;;
82265;SDS011;71866;53.340;-6.308;2023-12-20T06:27:24;3.80;;;0.70;;
82265;SDS011;71866;53.340;-6.308;2023-12-20T06:29:51;7.55;;;1.20;;
82265;SDS011;71866;53.340;-6.308;2023-12-20T06:32:17;3.05;;;0.82;;
82265;SDS011;71866;53.340;-6.308;2023-12-20T06:34:45;2.88;;;0.70;;
82265;SDS011;71866;53.340;-6.308;2023-12-20T06:37:12;3.95;;;0.80;;
82265;SDS011;71866;53.340;-6.308;2023-12-20T06:39:38;4.45;;;0.65;;
82265;SDS011;71866;53.340;-6.308;2023-12-20T06:42:06;5.22;;;1.27;;
82265;SDS011;71866;53.340;-6.308;2023-12-20T06:44:33;4.45;;;0.70;;
82265;SDS011;71866;53.340;-6.308;2023-12-20T06:47:00;7.72;;;1.00;;
82265;SDS011;71866;53.340;-6.308;2023-12-20T06:49:27;2.05;;;0.60;;
82265;SDS011;71866;53.340;-6.308;2023-12-20T06:51:55;3.42;;;0.80;;
82265;SDS011;71866;53.340;-6.308;2023-12-20T06:54:21;2.65;;;0.50;;
82265;SDS011;71866;53.340;-6.308;2023-12-20T06:56:49;3.58;;;0.50;;
82265;SDS011;71866;53.340;-6.308;2023-12-20T06:59:15;3.20;;;0.50;;
82265;SDS011;71866;53.340;-6.308;2023-12-20T07:01:42;4.05;;;1.00;;
82265;SDS011;71866;53.340;-6.308;2023-12-20T07:04:15;4.20;;;0.55;;
82265;SDS011;71866;53.340;-6.308;2023-12-20T07:06:42;4.03;;;0.90;;
82265;SDS011;71866;53.340;-6.308;2023-12-20T07:09:09;3.65;;;0.77;;
82265;SDS011;71866;53.340;-6.308;2023-12-20T07:11:36;6.20;;;0.70;;
82265;SDS011;71866;53.340;-6.308;2023-12-20T07:14:03;2.40;;;0.80;;
82265;SDS011;71866;53.340;-6.308;2023-12-20T07:16:30;5.78;;;0.95;;
82265;SDS011;71866;53.340;-6.308;2023-12-20T07:18:57;4.22;;;0.63;;
82265;SDS011;71866;53.340;-6.308;2023-12-20T07:21:24;1.15;;;0.50;;
82265;SDS011;71866;53.340;-6.308;2023-12-20T07:23:51;2.38;;;0.50;;
82265;SDS011;71866;53.340;-6.308;2023-12-20T07:26:18;2.88;;;0.60;;
82265;SDS011;71866;53.340;-6.308;2023-12-20T07:28:46;3.05;;;0.60;;
82265;SDS011;71866;53.340;-6.308;2023-12-20T07:31:15;4.50;;;0.70;;
82265;SDS011;71866;53.340;-6.308;2023-12-20T07:33:42;2.08;;;0.70;;
82265;SDS011;71866;53.340;-6.308;2023-12-20T07:36:09;2.45;;;0.65;;
82265;SDS011;71866;53.340;-6.308;2023-12-20T07:38:36;4.65;;;0.73;;
82265;SDS011;71866;53.340;-6.308;2023-12-20T07:41:03;5.28;;;0.77;;
82265;SDS011;71866;53.340;-6.308;2023-12-20T07:43:30;4.22;;;0.60;;
82265;SDS011;71866;53.340;-6.308;2023-12-20T07:46:01;4.00;;;0.70;;
82265;SDS011;71866;53.340;-6.308;2023-12-20T07:48:30;7.57;;;0.80;;
82265;SDS011;71866;53.340;-6.308;2023-12-20T07:50:58;4.63;;;0.80;;
82265;SDS011;71866;53.340;-6.308;2023-12-20T07:53:25;5.25;;;0.88;;
82265;SDS011;71866;53.340;-6.308;2023-12-20T07:55:52;5.72;;;0.80;;
82265;SDS011;71866;53.340;-6.308;2023-12-20T07:58:19;5.57;;;1.08;;
82265;SDS011;71866;53.340;-6.308;2023-12-20T08:00:52;5.00;;;0.80;;
82265;SDS011;71866;53.340;-6.308;2023-12-20T08:03:19;2.38;;;0.75;;
82265;SDS011;71866;53.340;-6.308;2023-12-20T08:05:46;5.57;;;0.98;;
82265;SDS011;71866;53.340;-6.308;2023-12-20T08:08:14;5.22;;;1.10;;
82265;SDS011;71866;53.340;-6.308;2023-12-20T08:10:41;6.22;;;0.80;;
82265;SDS011;71866;53.340;-6.308;2023-12-20T08:13:08;2.60;;;0.80;;
82265;SDS011;71866;53.340;-6.308;2023-12-20T08:15:35;6.80;;;1.00;;
82265;SDS011;71866;53.340;-6.308;2023-12-20T08:18:01;5.65;;;1.10;;
82265;SDS011;71866;53.340;-6.308;2023-12-20T08:20:29;8.02;;;1.20;;
82265;SDS011;71866;53.340;-6.308;2023-12-20T08:23:05;4.75;;;0.80;;
82265;SDS011;71866;53.340;-6.308;2023-12-20T08:25:34;4.60;;;1.63;;
82265;SDS011;71866;53.340;-6.308;2023-12-20T08:30:29;5.55;;;0.95;;
82265;SDS011;71866;53.340;-6.308;2023-12-20T08:32:57;6.55;;;0.90;;
82265;SDS011;71866;53.340;-6.308;2023-12-20T08:35:26;7.32;;;0.90;;
82265;SDS011;71866;53.340;-6.308;2023-12-20T08:37:53;6.72;;;1.10;;
82265;SDS011;71866;53.340;-6.308;2023-12-20T08:40:20;8.57;;;1.55;;
82265;SDS011;71866;53.340;-6.308;2023-12-20T08:42:48;8.32;;;1.30;;
82265;SDS011;71866;53.340;-6.308;2023-12-20T08:45:14;3.58;;;0.80;;
82265;SDS011;71866;53.340;-6.308;2023-12-20T08:47:42;8.20;;;1.50;;
82265;SDS011;71866;53.340;-6.308;2023-12-20T08:50:09;7.72;;;1.20;;
82265;SDS011;71866;53.340;-6.308;2023-12-20T08:52:37;5.50;;;0.65;;
82265;SDS011;71866;53.340;-6.308;2023-12-20T08:55:04;9.85;;;1.70;;
82265;SDS011;71866;53.340;-6.308;2023-12-20T08:57:31;9.55;;;0.95;;
82265;SDS011;71866;53.340;-6.308;2023-12-20T08:59:59;5.65;;;1.13;;
82265;SDS011;71866;53.340;-6.308;2023-12-20T09:02:25;6.07;;;1.02;;
82265;SDS011;71866;53.340;-6.308;2023-12-20T09:04:52;11.68;;;1.98;;
82265;SDS011;71866;53.340;-6.308;2023-12-20T09:07:23;6.63;;;0.98;;
82265;SDS011;71866;53.340;-6.308;2023-12-20T09:09:53;5.43;;;1.15;;
82265;SDS011;71866;53.340;-6.308;2023-12-20T09:12:20;11.30;;;1.95;;
82265;SDS011;71866;53.340;-6.308;2023-12-20T09:14:49;10.85;;;1.35;;
82265;SDS011;71866;53.340;-6.308;2023-12-20T09:17:17;7.13;;;1.38;;
82265;SDS011;71866;53.340;-6.308;2023-12-20T09:19:45;9.77;;;1.40;;
82265;SDS011;71866;53.340;-6.308;2023-12-20T09:22:12;15.30;;;1.50;;
82265;SDS011;71866;53.340;-6.308;2023-12-20T09:24:40;7.38;;;1.67;;
82265;SDS011;71866;53.340;-6.308;2023-12-20T09:27:06;7.57;;;1.42;;
82265;SDS011;71866;53.340;-6.308;2023-12-20T09:29:34;8.23;;;1.45;;
82265;SDS011;71866;53.340;-6.308;2023-12-20T09:32:01;8.57;;;1.40;;
82265;SDS011;71866;53.340;-6.308;2023-12-20T09:34:28;8.43;;;1.23;;
82265;SDS011;71866;53.340;-6.308;2023-12-20T09:36:55;9.27;;;1.70;;
82265;SDS011;71866;53.340;-6.308;2023-12-20T09:39:23;13.80;;;2.35;;
82265;SDS011;71866;53.340;-6.308;2023-12-20T09:42:00;11.82;;;2.13;;
82265;SDS011;71866;53.340;-6.308;2023-12-20T09:44:27;7.45;;;2.22;;
82265;SDS011;71866;53.340;-6.308;2023-12-20T09:46:56;8.82;;;1.67;;
82265;SDS011;71866;53.340;-6.308;2023-12-20T09:49:23;17.42;;;2.42;;
82265;SDS011;71866;53.340;-6.308;2023-12-20T09:51:54;10.02;;;1.73;;
82265;SDS011;71866;53.340;-6.308;2023-12-20T09:54:21;8.05;;;1.60;;
82265;SDS011;71866;53.340;-6.308;2023-12-20T09:56:50;13.95;;;2.17;;
82265;SDS011;71866;53.340;-6.308;2023-12-20T09:59:17;11.25;;;1.85;;
82265;SDS011;71866;53.340;-6.308;2023-12-20T10:01:44;9.82;;;2.13;;
82265;SDS011;71866;53.340;-6.308;2023-12-20T10:04:12;10.50;;;1.50;;
82265;SDS011;71866;53.340;-6.308;2023-12-20T10:06:55;9.23;;;1.40;;
82265;SDS011;71866;53.340;-6.308;2023-12-20T10:09:22;8.90;;;1.90;;
82265;SDS011;71866;53.340;-6.308;2023-12-20T10:11:50;9.48;;;1.48;;
82265;SDS011;71866;53.340;-6.308;2023-12-20T10:14:21;13.50;;;1.85;;
82265;SDS011;71866;53.340;-6.308;2023-12-20T10:16:51;12.20;;;2.28;;
82265;SDS011;71866;53.340;-6.308;2023-12-20T10:19:20;9.95;;;1.50;;
82265;SDS011;71866;53.340;-6.308;2023-12-20T10:21:46;12.73;;;2.38;;
82265;SDS011;71866;53.340;-6.308;2023-12-20T10:24:17;10.68;;;1.58;;
82265;SDS011;71866;53.340;-6.308;2023-12-20T10:26:44;10.32;;;1.60;;
82265;SDS011;71866;53.340;-6.308;2023-12-20T10:29:12;13.30;;;2.17;;
82265;SDS011;71866;53.340;-6.308;2023-12-20T10:31:39;9.73;;;1.70;;
82265;SDS011;71866;53.340;-6.308;2023-12-20T10:34:06;12.43;;;2.03;;
82265;SDS011;71866;53.340;-6.308;2023-12-20T10:36:33;12.50;;;2.00;;
82265;SDS011;71866;53.340;-6.308;2023-12-20T10:39:01;12.27;;;1.75;;
82265;SDS011;71866;53.340;-6.308;2023-12-20T10:41:29;13.65;;;2.13;;
82265;SDS011;71866;53.340;-6.308;2023-12-20T10:46:26;12.00;;;2.10;;
82265;SDS011;71866;53.340;-6.308;2023-12-20T10:48:54;16.95;;;2.40;;
82265;SDS011;71866;53.340;-6.308;2023-12-20T10:51:22;8.65;;;2.20;;
82265;SDS011;71866;53.340;-6.308;2023-12-20T10:53:50;13.63;;;2.45;;
82265;SDS011;71866;53.340;-6.308;2023-12-20T10:56:20;17.83;;;2.85;;
82265;SDS011;71866;53.340;-6.308;2023-12-20T10:58:48;16.80;;;2.13;;
82265;SDS011;71866;53.340;-6.308;2023-12-20T11:01:17;16.05;;;2.00;;
82265;SDS011;71866;53.340;-6.308;2023-12-20T11:03:54;14.27;;;2.05;;
82265;SDS011;71866;53.340;-6.308;2023-12-20T11:14:53;12.95;;;2.10;;
82265;SDS011;71866;53.340;-6.308;2023-12-20T11:17:23;14.80;;;1.92;;
82265;SDS011;71866;53.340;-6.308;2023-12-20T11:22:25;17.20;;;2.75;;
82265;SDS011;71866;53.340;-6.308;2023-12-20T11:24:54;14.07;;;2.05;;
82265;SDS011;71866;53.340;-6.308;2023-12-20T11:27:24;8.27;;;1.58;;
82265;SDS011;71866;53.340;-6.308;2023-12-20T11:29:54;9.63;;;1.77;;
82265;SDS011;71866;53.340;-6.308;2023-12-20T11:34:54;19.05;;;3.28;;
82265;SDS011;71866;53.340;-6.308;2023-12-20T11:37:25;13.40;;;2.67;;
82265;SDS011;71866;53.340;-6.308;2023-12-20T11:40:00;12.07;;;1.92;;
82265;SDS011;71866;53.340;-6.308;2023-12-20T11:42:27;14.75;;;2.25;;
82265;SDS011;71866;53.340;-6.308;2023-12-20T11:44:54;11.43;;;2.03;;
82265;SDS011;71866;53.340;-6.308;2023-12-20T11:47:23;18.58;;;2.92;;
82265;SDS011;71866;53.340;-6.308;2023-12-20T11:49:50;19.40;;;2.55;;
82265;SDS011;71866;53.340;-6.308;2023-12-20T11:52:18;16.85;;;2.45;;
82265;SDS011;71866;53.340;-6.308;2023-12-20T11:54:46;16.27;;;2.28;;
82265;SDS011;71866;53.340;-6.308;2023-12-20T11:57:13;16.48;;;2.45;;
82265;SDS011;71866;53.340;-6.308;2023-12-20T11:59:40;16.58;;;2.40;;
82265;SDS011;71866;53.340;-6.308;2023-12-20T12:02:07;14.32;;;2.50;;
82265;SDS011;71866;53.340;-6.308;2023-12-20T12:04:34;18.92;;;3.28;;
82265;SDS011;71866;53.340;-6.308;2023-12-20T12:07:02;15.63;;;2.40;;
82265;SDS011;71866;53.340;-6.308;2023-12-20T12:09:29;15.07;;;2.40;;
82265;SDS011;71866;53.340;-6.308;2023-12-20T12:11:56;19.63;;;2.95;;
82265;SDS011;71866;53.340;-6.308;2023-12-20T12:14:24;14.27;;;2.40;;
82265;SDS011;71866;53.340;-6.308;2023-12-20T12:16:51;12.60;;;2.53;;
82265;SDS011;71866;53.340;-6.308;2023-12-20T12:19:24;18.98;;;2.85;;
82265;SDS011;71866;53.340;-6.308;2023-12-20T12:22:08;17.83;;;2.80;;
82265;SDS011;71866;53.340;-6.308;2023-12-20T12:24:40;20.05;;;2.53;;
82265;SDS011;71866;53.340;-6.308;2023-12-20T12:27:06;15.90;;;2.38;;
82265;SDS011;71866;53.340;-6.308;2023-12-20T12:29:35;15.55;;;2.95;;
82265;SDS011;71866;53.340;-6.308;2023-12-20T12:32:06;13.70;;;2.22;;
82265;SDS011;71866;53.340;-6.308;2023-12-20T12:34:35;15.80;;;2.28;;
82265;SDS011;71866;53.340;-6.308;2023-12-20T12:37:03;16.23;;;2.80;;
82265;SDS011;71866;53.340;-6.308;2023-12-20T12:39:31;13.07;;;2.38;;
82265;SDS011;71866;53.340;-6.308;2023-12-20T12:41:58;9.65;;;2.03;;
82265;SDS011;71866;53.340;-6.308;2023-12-20T12:44:26;14.90;;;2.58;;
82265;SDS011;71866;53.340;-6.308;2023-12-20T12:46:53;15.27;;;2.47;;
82265;SDS011;71866;53.340;-6.308;2023-12-20T12:49:20;15.95;;;2.53;;
82265;SDS011;71866;53.340;-6.308;2023-12-20T12:51:48;13.35;;;1.83;;
82265;SDS011;71866;53.340;-6.308;2023-12-20T12:54:16;11.70;;;2.22;;
82265;SDS011;71866;53.340;-6.308;2023-12-20T12:56:42;12.10;;;2.08;;
82265;SDS011;71866;53.340;-6.308;2023-12-20T12:59:10;13.00;;;2.55;;
82265;SDS011;71866;53.340;-6.308;2023-12-20T13:01:37;16.15;;;2.25;;
82265;SDS011;71866;53.340;-6.308;2023-12-20T13:04:05;8.98;;;1.98;;
82265;SDS011;71866;53.340;-6.308;2023-12-20T13:06:33;10.63;;;1.77;;
82265;SDS011;71866;53.340;-6.308;2023-12-20T13:09:00;12.07;;;2.38;;
82265;SDS011;71866;53.340;-6.308;2023-12-20T13:11:28;12.07;;;2.22;;
82265;SDS011;71866;53.340;-6.308;2023-12-20T13:13:54;14.35;;;2.20;;
82265;SDS011;71866;53.340;-6.308;2023-12-20T13:16:22;12.07;;;2.05;;
82265;SDS011;71866;53.340;-6.308;2023-12-20T13:18:48;15.30;;;2.50;;
82265;SDS011;71866;53.340;-6.308;2023-12-20T13:21:16;12.88;;;2.03;;
82265;SDS011;71866;53.340;-6.308;2023-12-20T13:23:43;15.80;;;2.15;;
82265;SDS011;71866;53.340;-6.308;2023-12-20T13:26:10;10.65;;;2.17;;
82265;SDS011;71866;53.340;-6.308;2023-12-20T13:28:37;15.90;;;1.48;;
82265;SDS011;71866;53.340;-6.308;2023-12-20T13:31:04;11.80;;;2.38;;
82265;SDS011;71866;53.340;-6.308;2023-12-20T13:33:31;13.68;;;2.65;;
82265;SDS011;71866;53.340;-6.308;2023-12-20T13:35:58;14.85;;;3.35;;
82265;SDS011;71866;53.340;-6.308;2023-12-20T13:38:25;16.35;;;3.03;;
82265;SDS011;71866;53.340;-6.308;2023-12-20T13:40:52;18.42;;;3.72;;
82265;SDS011;71866;53.340;-6.308;2023-12-20T13:43:19;11.00;;;2.92;;
82265;SDS011;71866;53.340;-6.308;2023-12-20T13:45:46;15.30;;;2.83;;
82265;SDS011;71866;53.340;-6.308;2023-12-20T13:48:15;10.90;;;2.70;;
82265;SDS011;71866;53.340;-6.308;2023-12-20T13:50:42;14.00;;;2.72;;
82265;SDS011;71866;53.340;-6.308;2023-12-20T13:53:09;19.08;;;4.15;;
82265;SDS011;71866;53.340;-6.308;2023-12-20T13:55:37;17.60;;;2.88;;
82265;SDS011;71866;53.340;-6.308;2023-12-20T13:58:03;15.38;;;2.47;;
82265;SDS011;71866;53.340;-6.308;2023-12-20T14:00:31;9.05;;;4.03;;
82265;SDS011;71866;53.340;-6.308;2023-12-20T14:02:58;18.23;;;3.60;;
82265;SDS011;71866;53.340;-6.308;2023-12-20T14:05:25;13.55;;;3.13;;
82265;SDS011;71866;53.340;-6.308;2023-12-20T14:07:54;15.02;;;2.90;;
82265;SDS011;71866;53.340;-6.308;2023-12-20T14:10:21;15.57;;;2.95;;
82265;SDS011;71866;53.340;-6.308;2023-12-20T14:12:49;14.25;;;2.78;;
82265;SDS011;71866;53.340;-6.308;2023-12-20T14:15:15;14.55;;;2.80;;
82265;SDS011;71866;53.340;-6.308;2023-12-20T14:17:43;11.68;;;2.47;;
82265;SDS011;71866;53.340;-6.308;2023-12-20T14:20:12;19.08;;;2.92;;
82265;SDS011;71866;53.340;-6.308;2023-12-20T14:22:43;12.25;;;2.85;;
82265;SDS011;71866;53.340;-6.308;2023-12-20T14:25:12;12.88;;;2.55;;
82265;SDS011;71866;53.340;-6.308;2023-12-20T14:27:44;10.05;;;1.92;;
82265;SDS011;71866;53.340;-6.308;2023-12-20T14:30:16;11.18;;;2.42;;
82265;SDS011;71866;53.340;-6.308;2023-12-20T14:32:42;12.65;;;2.17;;
82265;SDS011;71866;53.340;-6.308;2023-12-20T14:35:10;12.95;;;2.40;;
82265;SDS011;71866;53.340;-6.308;2023-12-20T14:37:37;11.63;;;2.10;;
82265;SDS011;71866;53.340;-6.308;2023-12-20T14:40:05;11.57;;;3.30;;
82265;SDS011;71866;53.340;-6.308;2023-12-20T14:42:36;9.98;;;3.63;;
82265;SDS011;71866;53.340;-6.308;2023-12-20T14:45:02;9.05;;;2.22;;
82265;SDS011;71866;53.340;-6.308;2023-12-20T14:47:31;8.15;;;1.73;;
82265;SDS011;71866;53.340;-6.308;2023-12-20T14:49:57;9.60;;;1.45;;
82265;SDS011;71866;53.340;-6.308;2023-12-20T14:52:25;7.55;;;1.55;;